createdAt,value
2023-04-15T00:00:59.757Z,95051.78
2023-04-15T00:03:28.890Z,95055.00
2023-04-15T00:05:58.744Z,95054.52
2023-04-15T00:08:26.776Z,95060.05
2023-04-15T00:10:54.792Z,95062.36
2023-04-15T00:13:22.853Z,95059.94
2023-04-15T00:15:50.796Z,95058.13
2023-04-15T00:18:18.750Z,95060.21
2023-04-15T00:20:47.268Z,95060.60
2023-04-15T00:23:15.176Z,95054.80
2023-04-15T00:25:43.092Z,95053.45
2023-04-15T00:28:11.279Z,95055.71
2023-04-15T00:30:39.356Z,95056.48
2023-04-15T00:33:08.057Z,95055.00
2023-04-15T00:35:39.392Z,95054.59
2023-04-15T00:38:10.077Z,95059.89
2023-04-15T00:40:38.264Z,95063.96
2023-04-15T00:43:07.148Z,95063.02
2023-04-15T00:45:35.092Z,95058.89
2023-04-15T00:48:03.849Z,95056.98
2023-04-15T00:50:32.011Z,95052.55
2023-04-15T00:53:00.129Z,95054.83
2023-04-15T00:55:28.130Z,95056.35
2023-04-15T00:57:57.536Z,95059.47
2023-04-15T01:00:25.688Z,95055.59
2023-04-15T01:02:53.978Z,95054.17
2023-04-15T01:05:22.419Z,95047.96
2023-04-15T01:07:50.738Z,95046.89
2023-04-15T01:10:18.785Z,95047.26
2023-04-15T01:12:47.081Z,95046.81
2023-04-15T01:15:16.210Z,95047.37
2023-04-15T01:17:44.229Z,95045.84
2023-04-15T01:20:12.721Z,95046.46
2023-04-15T01:22:41.431Z,95045.49
2023-04-15T01:25:18.435Z,95042.25
2023-04-15T01:27:46.592Z,95041.98
2023-04-15T01:30:14.611Z,95039.68
2023-04-15T01:32:42.686Z,95037.33
2023-04-15T01:35:10.786Z,95040.91
2023-04-15T01:37:38.786Z,95042.24
2023-04-15T01:40:08.092Z,95043.92
2023-04-15T01:42:37.717Z,95042.71
2023-04-15T01:45:07.327Z,95035.41
2023-04-15T01:47:35.336Z,95034.69
2023-04-15T01:50:03.598Z,95035.34
2023-04-15T01:52:32.229Z,95035.05
2023-04-15T01:55:00.488Z,95035.30
2023-04-15T01:57:28.525Z,95033.95
2023-04-15T01:59:56.777Z,95038.54
2023-04-15T02:02:25.038Z,95042.41
2023-04-15T02:04:53.652Z,95044.80
2023-04-15T02:07:21.978Z,95041.36
2023-04-15T02:09:50.219Z,95043.61
2023-04-15T02:12:18.212Z,95043.12
2023-04-15T02:14:46.284Z,95047.02
2023-04-15T02:17:14.367Z,95046.63
2023-04-15T02:19:44.659Z,95046.83
2023-04-15T02:22:19.060Z,95046.23
2023-04-15T02:24:47.771Z,95043.91
2023-04-15T02:27:17.854Z,95041.11
2023-04-15T02:29:47.592Z,95039.86
2023-04-15T02:32:15.620Z,95038.97
2023-04-15T02:34:43.580Z,95040.05
2023-04-15T02:37:13.708Z,95040.12
2023-04-15T02:39:41.755Z,95038.90
2023-04-15T02:42:11.623Z,95036.52
2023-04-15T02:44:39.547Z,95037.48
2023-04-15T02:47:07.569Z,95035.86
2023-04-15T02:49:35.898Z,95037.96
2023-04-15T02:52:03.865Z,95043.09
2023-04-15T02:54:34.075Z,95039.16
2023-04-15T02:57:02.252Z,95035.11
2023-04-15T02:59:30.267Z,95030.73
2023-04-15T03:02:01.087Z,95030.70
2023-04-15T03:04:31.007Z,95026.80
2023-04-15T03:06:59.080Z,95028.28
2023-04-15T03:09:27.651Z,95026.15
2023-04-15T03:11:57.055Z,95029.19
2023-04-15T03:14:25.806Z,95032.55
2023-04-15T03:16:53.855Z,95031.23
2023-04-15T03:19:21.763Z,95030.14
2023-04-15T03:21:49.649Z,95034.29
2023-04-15T03:24:18.617Z,95034.45
2023-04-15T03:26:46.647Z,95037.65
2023-04-15T03:29:17.084Z,95038.17
2023-04-15T03:31:45.028Z,95039.55
2023-04-15T03:34:12.973Z,95041.56
2023-04-15T03:36:41.500Z,95047.30
2023-04-15T03:39:09.593Z,95047.73
2023-04-15T03:41:37.621Z,95050.83
2023-04-15T03:44:05.733Z,95052.05
2023-04-15T03:46:33.683Z,95051.73
2023-04-15T03:49:02.479Z,95055.11
2023-04-15T03:51:31.599Z,95058.33
2023-04-15T03:53:59.680Z,95060.27
2023-04-15T03:56:27.901Z,95066.65
2023-04-15T03:58:55.930Z,95068.89
2023-04-15T04:01:23.888Z,95075.68
2023-04-15T04:03:52.481Z,95079.21
2023-04-15T04:06:20.911Z,95078.96
2023-04-15T04:08:48.904Z,95080.64
2023-04-15T04:11:17.367Z,95080.70
2023-04-15T04:13:45.462Z,95080.86
2023-04-15T04:16:13.560Z,95084.40
2023-04-15T04:18:41.644Z,95087.27
2023-04-15T04:21:10.163Z,95092.65
2023-04-15T04:23:38.118Z,95091.00
2023-04-15T04:26:06.262Z,95094.99
2023-04-15T04:28:35.422Z,95094.07
2023-04-15T04:31:03.367Z,95096.83
2023-04-15T04:33:31.314Z,95103.38
2023-04-15T04:35:59.355Z,95106.98
2023-04-15T04:38:27.296Z,95105.20
2023-04-15T04:40:55.416Z,95104.52
2023-04-15T04:43:23.381Z,95110.98
2023-04-15T04:45:51.520Z,95111.24
2023-04-15T04:48:20.076Z,95108.66
2023-04-15T04:50:48.468Z,95114.33
2023-04-15T04:53:16.413Z,95109.34
2023-04-15T04:55:44.373Z,95106.19
2023-04-15T04:58:12.587Z,95106.64
2023-04-15T05:00:41.009Z,95105.84
2023-04-15T05:03:09.324Z,95105.05
2023-04-15T05:05:39.654Z,95105.06
2023-04-15T05:08:07.905Z,95107.68
2023-04-15T05:10:36.410Z,95110.06
2023-04-15T05:13:04.323Z,95109.71
2023-04-15T05:15:33.155Z,95110.08
2023-04-15T05:18:01.453Z,95110.07
2023-04-15T05:20:29.633Z,95107.66
2023-04-15T05:22:57.594Z,95110.11
2023-04-15T05:25:26.104Z,95107.63
2023-04-15T05:27:54.108Z,95113.72
2023-04-15T05:30:22.404Z,95117.80
2023-04-15T05:32:50.478Z,95119.37
2023-04-15T05:35:19.135Z,95124.95
2023-04-15T05:37:47.194Z,95125.73
2023-04-15T05:40:15.468Z,95125.25
2023-04-15T05:42:43.400Z,95125.88
2023-04-15T05:45:11.606Z,95131.55
2023-04-15T05:47:39.562Z,95129.98
2023-04-15T05:50:08.306Z,95134.27
2023-04-15T05:52:37.050Z,95136.49
2023-04-15T05:55:05.634Z,95142.32
2023-04-15T05:57:33.662Z,95145.91
2023-04-15T06:00:01.655Z,95149.64
2023-04-15T06:02:37.997Z,95155.77
2023-04-15T06:05:10.101Z,95156.83
2023-04-15T06:07:38.919Z,95157.95
2023-04-15T06:10:07.998Z,95154.02
2023-04-15T06:12:36.204Z,95150.95
2023-04-15T06:15:05.045Z,95152.91
2023-04-15T06:17:33.053Z,95146.65
2023-04-15T06:20:01.106Z,95140.11
2023-04-15T06:22:29.194Z,95146.04
2023-04-15T06:24:57.222Z,95148.59
2023-04-15T06:27:25.259Z,95152.84
2023-04-15T06:29:53.234Z,95161.33
2023-04-15T06:32:21.385Z,95164.63
2023-04-15T06:34:49.378Z,95164.13
2023-04-15T06:37:17.254Z,95163.90
2023-04-15T06:39:45.244Z,95164.80
2023-04-15T06:42:13.401Z,95164.44
2023-04-15T06:44:42.478Z,95165.73
2023-04-15T06:47:10.488Z,95164.80
2023-04-15T06:49:38.729Z,95165.19
2023-04-15T06:52:06.826Z,95164.10
2023-04-15T06:54:34.782Z,95168.50
2023-04-15T06:57:02.909Z,95177.33
2023-04-15T06:59:31.266Z,95189.94
2023-04-15T07:01:59.243Z,95192.05
2023-04-15T07:04:28.108Z,95193.86
2023-04-15T07:06:56.913Z,95198.75
2023-04-15T07:09:25.699Z,95200.32
2023-04-15T07:11:53.816Z,95196.42
2023-04-15T07:14:21.849Z,95187.91
2023-04-15T07:16:50.000Z,95188.41
2023-04-15T07:19:17.908Z,95190.80
2023-04-15T07:21:45.924Z,95193.48
2023-04-15T07:24:17.034Z,95189.23
2023-04-15T07:26:45.368Z,95185.59
2023-04-15T07:29:13.416Z,95183.97
2023-04-15T07:31:42.380Z,95178.69
2023-04-15T07:34:10.874Z,95185.45
2023-04-15T07:36:39.030Z,95182.61
2023-04-15T07:39:07.229Z,95184.04
2023-04-15T07:41:35.261Z,95188.06
2023-04-15T07:44:03.184Z,95186.67
2023-04-15T07:46:31.168Z,95189.49
2023-04-15T07:48:59.223Z,95189.64
2023-04-15T07:51:27.335Z,95190.30
2023-04-15T07:53:55.280Z,95192.21
2023-04-15T07:56:23.485Z,95191.63
2023-04-15T07:58:51.671Z,95188.09
2023-04-15T08:01:19.637Z,95188.10
2023-04-15T08:03:48.614Z,95192.44
2023-04-15T08:06:16.800Z,95189.05
2023-04-15T08:08:44.722Z,95189.95
2023-04-15T08:11:13.192Z,95190.30
2023-04-15T08:13:41.288Z,95190.75
2023-04-15T08:16:13.944Z,95189.59
2023-04-15T08:18:41.989Z,95188.85
2023-04-15T08:21:10.995Z,95190.23
2023-04-15T08:23:39.635Z,95190.67
2023-04-15T08:26:08.823Z,95188.34
2023-04-15T08:28:39.655Z,95189.30
2023-04-15T08:31:08.197Z,95190.45
2023-04-15T08:33:36.372Z,95194.29
2023-04-15T08:36:04.897Z,95194.01
2023-04-15T08:38:33.116Z,95191.88
2023-04-15T08:41:08.393Z,95191.42
2023-04-15T08:43:45.895Z,95192.00
2023-04-15T08:46:15.678Z,95191.23
2023-04-15T08:48:44.749Z,95195.58
2023-04-15T08:51:16.117Z,95199.46
2023-04-15T08:53:47.958Z,95195.69
2023-04-15T08:56:16.999Z,95195.64
2023-04-15T08:58:46.594Z,95192.07
2023-04-15T09:01:15.156Z,95193.00
2023-04-15T09:03:44.318Z,95194.85
2023-04-15T09:06:12.941Z,95191.27
2023-04-15T09:08:41.449Z,95192.09
2023-04-15T09:11:09.415Z,95196.86
2023-04-15T09:13:37.513Z,95197.30
2023-04-15T09:16:06.772Z,95195.54
2023-04-15T09:18:36.867Z,95190.49
2023-04-15T09:21:14.146Z,95188.50
2023-04-15T09:23:56.314Z,95178.90
2023-04-15T09:26:35.327Z,95176.15
2023-04-15T09:29:07.944Z,95176.52
2023-04-15T09:31:37.080Z,95172.71
2023-04-15T09:34:05.792Z,95167.21
2023-04-15T09:36:47.034Z,95164.49
2023-04-15T09:39:16.152Z,95163.54
2023-04-15T09:41:45.109Z,95160.60
2023-04-15T09:44:27.036Z,95164.67
2023-04-15T09:46:54.949Z,95161.46
2023-04-15T09:49:23.405Z,95163.27
2023-04-15T09:52:03.970Z,95170.75
2023-04-15T09:54:38.272Z,95173.98
2023-04-15T09:57:08.144Z,95173.73
2023-04-15T09:59:36.358Z,95177.59
2023-04-15T10:02:06.504Z,95173.89
2023-04-15T10:04:39.363Z,95168.89
2023-04-15T10:07:09.803Z,95168.25
2023-04-15T10:09:39.180Z,95166.49
2023-04-15T10:12:07.499Z,95168.26
2023-04-15T10:14:38.826Z,95170.61
2023-04-15T10:17:08.364Z,95166.33
2023-04-15T10:19:38.029Z,95161.59
2023-04-15T10:22:06.676Z,95155.39
2023-04-15T10:24:35.052Z,95150.51
2023-04-15T10:27:07.085Z,95147.66
2023-04-15T10:29:35.177Z,95139.54
2023-04-15T10:32:03.861Z,95141.19
2023-04-15T10:34:32.843Z,95144.16
2023-04-15T10:37:04.806Z,95152.48
2023-04-15T10:39:38.915Z,95149.02
2023-04-15T10:42:15.424Z,95150.17
2023-04-15T10:44:54.339Z,95146.82
2023-04-15T10:47:22.717Z,95144.33
2023-04-15T10:49:57.087Z,95142.56
2023-04-15T10:52:27.854Z,95147.16
2023-04-15T10:55:03.432Z,95143.36
2023-04-15T10:57:42.403Z,95150.04
2023-04-15T11:00:17.528Z,95148.83
2023-04-15T11:02:52.478Z,95150.15
2023-04-15T11:05:23.140Z,95146.49
2023-04-15T11:07:54.404Z,95147.13
2023-04-15T11:10:25.805Z,95145.85
2023-04-15T11:12:58.116Z,95140.16
2023-04-15T11:15:45.114Z,95142.77
2023-04-15T11:18:17.977Z,95143.42
2023-04-15T11:20:48.388Z,95147.31
2023-04-15T11:23:19.179Z,95144.70
2023-04-15T11:25:48.574Z,95139.23
2023-04-15T11:28:16.927Z,95145.02
2023-04-15T11:30:45.418Z,95155.90
2023-04-15T11:33:14.135Z,95156.52
2023-04-15T11:35:42.663Z,95155.77
2023-04-15T11:38:13.872Z,95158.86
2023-04-15T11:40:46.757Z,95163.79
2023-04-15T11:43:21.155Z,95156.36
2023-04-15T11:46:03.201Z,95157.11
2023-04-15T11:48:36.228Z,95160.31
2023-04-15T11:51:08.264Z,95158.52
2023-04-15T11:53:42.727Z,95152.54
2023-04-15T11:56:17.889Z,95158.27
2023-04-15T11:58:46.711Z,95153.08
2023-04-15T12:01:14.853Z,95150.05
2023-04-15T12:03:45.636Z,95151.95
2023-04-15T12:06:22.709Z,95152.15
2023-04-15T12:09:12.133Z,95151.31
2023-04-15T12:11:49.938Z,95152.23
2023-04-15T12:14:17.999Z,95154.98
2023-04-15T12:16:50.327Z,95149.76
2023-04-15T12:19:25.384Z,95152.08
2023-04-15T12:22:00.512Z,95146.30
2023-04-15T12:24:31.872Z,95148.13
2023-04-15T12:27:07.858Z,95146.42
2023-04-15T12:29:38.687Z,95150.37
2023-04-15T12:32:11.867Z,95140.88
2023-04-15T12:34:45.204Z,95143.02
2023-04-15T12:37:14.488Z,95138.76
2023-04-15T12:39:44.335Z,95136.58
2023-04-15T12:42:13.099Z,95143.48
2023-04-15T12:44:41.413Z,95146.55
2023-04-15T12:47:10.971Z,95146.33
2023-04-15T12:49:39.804Z,95146.27
2023-04-15T12:52:08.025Z,95141.15
2023-04-15T12:54:36.583Z,95137.84
2023-04-15T12:57:07.164Z,95137.02
2023-04-15T12:59:36.589Z,95146.86
2023-04-15T13:02:04.876Z,95145.45
2023-04-15T13:04:33.412Z,95138.41
2023-04-15T13:07:02.765Z,95142.80
2023-04-15T13:09:31.400Z,95141.73
2023-04-15T13:11:59.540Z,95139.77
2023-04-15T13:14:27.601Z,95149.28
2023-04-15T13:16:55.724Z,95152.67
2023-04-15T13:19:23.829Z,95152.29
2023-04-15T13:21:51.810Z,95158.89
2023-04-15T13:24:19.736Z,95167.05
2023-04-15T13:26:50.105Z,95178.17
2023-04-15T13:29:18.353Z,95184.06
2023-04-15T13:31:46.385Z,95191.59
2023-04-15T13:34:14.433Z,95202.02
2023-04-15T13:36:42.399Z,95199.18
2023-04-15T13:39:10.361Z,95196.94
2023-04-15T13:41:38.404Z,95200.45
2023-04-15T13:44:07.318Z,95198.39
2023-04-15T13:46:35.577Z,95204.40
2023-04-15T13:49:03.599Z,95204.98
2023-04-15T13:51:31.979Z,95217.17
2023-04-15T13:53:59.952Z,95216.02
2023-04-15T13:56:28.078Z,95223.61
2023-04-15T13:58:59.035Z,95237.96
2023-04-15T14:01:27.224Z,95234.86
2023-04-15T14:03:56.213Z,95230.22
2023-04-15T14:06:24.918Z,95232.94
2023-04-15T14:08:53.157Z,95235.95
2023-04-15T14:11:21.252Z,95236.77
2023-04-15T14:13:49.288Z,95234.80
2023-04-15T14:16:17.498Z,95240.95
2023-04-15T14:18:45.544Z,95250.94
2023-04-15T14:21:13.767Z,95250.33
2023-04-15T14:23:41.889Z,95254.71
2023-04-15T14:26:10.182Z,95252.01
2023-04-15T14:28:39.484Z,95256.18
2023-04-15T14:31:07.827Z,95255.42
2023-04-15T14:33:36.208Z,95261.42
2023-04-15T14:36:04.504Z,95263.39
2023-04-15T14:38:38.459Z,95265.29
2023-04-15T14:41:08.178Z,95267.27
2023-04-15T14:43:36.811Z,95266.34
2023-04-15T14:46:05.216Z,95263.08
2023-04-15T14:48:33.286Z,95262.62
2023-04-15T14:51:01.353Z,95264.36
2023-04-15T14:53:29.715Z,95271.85
2023-04-15T14:55:57.889Z,95277.05
2023-04-15T14:58:25.962Z,95280.41
2023-04-15T15:00:54.084Z,95283.61
2023-04-15T15:03:22.248Z,95287.17
2023-04-15T15:05:50.847Z,95294.73
2023-04-15T15:08:19.055Z,95307.88
2023-04-15T15:10:49.322Z,95315.16
2023-04-15T15:13:19.148Z,95337.91
2023-04-15T15:15:49.410Z,95373.63
2023-04-15T15:18:19.267Z,95372.47
2023-04-15T15:20:47.989Z,95386.52
2023-04-15T15:23:16.362Z,95407.30
2023-04-15T15:26:04.902Z,95406.92
2023-04-15T15:28:33.055Z,95418.45
2023-04-15T15:31:01.141Z,95417.59
2023-04-15T15:33:30.195Z,95411.13
2023-04-15T15:35:58.816Z,95406.83
2023-04-15T15:38:26.848Z,95400.45
2023-04-15T15:40:54.934Z,95394.42
2023-04-15T15:43:23.131Z,95390.31
2023-04-15T15:45:52.973Z,95388.21
2023-04-15T15:48:23.971Z,95376.56
2023-04-15T15:50:52.628Z,95367.13
2023-04-15T15:53:40.579Z,95359.65
2023-04-15T15:56:08.558Z,95354.77
2023-04-15T15:58:37.027Z,95346.65
2023-04-15T16:01:06.008Z,95341.01
2023-04-15T16:03:34.315Z,95335.18
2023-04-15T16:06:03.879Z,95331.90
2023-04-15T16:08:31.916Z,95333.73
2023-04-15T16:11:00.177Z,95332.41
2023-04-15T16:13:28.163Z,95328.03
2023-04-15T16:15:56.186Z,95324.96
2023-04-15T16:18:24.278Z,95320.59
2023-04-15T16:20:52.274Z,95316.61
2023-04-15T16:23:20.668Z,95319.62
2023-04-15T16:25:50.560Z,95319.40
2023-04-15T16:28:26.415Z,95321.09
2023-04-15T16:30:57.258Z,95319.41
2023-04-15T16:33:26.708Z,95322.90
2023-04-15T16:35:54.744Z,95323.99
2023-04-15T16:38:22.836Z,95326.07
2023-04-15T16:40:52.004Z,95328.36
2023-04-15T16:43:20.195Z,95328.05
2023-04-15T16:45:51.563Z,95330.01
2023-04-15T16:48:20.719Z,95331.79
2023-04-15T16:50:49.433Z,95333.13
2023-04-15T16:53:17.562Z,95334.86
2023-04-15T16:55:45.748Z,95334.35
2023-04-15T16:58:13.789Z,95337.76
2023-04-15T17:00:41.805Z,95344.23
2023-04-15T17:03:09.975Z,95348.17
2023-04-15T17:05:38.380Z,95352.09
2023-04-15T17:08:06.447Z,95355.80
2023-04-15T17:10:34.576Z,95365.77
2023-04-15T17:13:02.488Z,95370.13
2023-04-15T17:15:30.790Z,95374.67
2023-04-15T17:17:58.814Z,95380.20
2023-04-15T17:20:26.846Z,95386.41
2023-04-15T17:22:55.078Z,95392.90
2023-04-15T17:25:23.658Z,95398.36
2023-04-15T17:27:51.550Z,95404.48
2023-04-15T17:30:19.545Z,95410.80
2023-04-15T17:32:47.572Z,95414.35
2023-04-15T17:35:15.615Z,95419.62
2023-04-15T17:37:43.681Z,95422.59
2023-04-15T17:40:12.164Z,95423.06
2023-04-15T17:42:40.751Z,95430.59
2023-04-15T17:45:09.312Z,95436.27
2023-04-15T17:47:37.609Z,95443.61
2023-04-15T17:50:08.075Z,95448.45
2023-04-15T17:52:36.041Z,95452.33
2023-04-15T17:55:04.365Z,95452.45
2023-04-15T17:57:32.367Z,95458.27
2023-04-15T18:00:00.470Z,95465.81
2023-04-15T18:02:28.816Z,95472.30
2023-04-15T18:04:57.273Z,95476.31
2023-04-15T18:07:25.689Z,95482.16
2023-04-15T18:09:55.864Z,95481.48
2023-04-15T18:12:23.930Z,95488.20
2023-04-15T18:14:51.898Z,95497.38
2023-04-15T18:17:20.639Z,95498.26
2023-04-15T18:19:48.902Z,95503.07
2023-04-15T18:22:17.016Z,95503.30
2023-04-15T18:24:44.919Z,95510.13
2023-04-15T18:27:12.927Z,95516.29
2023-04-15T18:29:41.516Z,95525.95
2023-04-15T18:32:10.121Z,95537.24
2023-04-15T18:34:38.450Z,95546.55
2023-04-15T18:37:06.454Z,95547.63
2023-04-15T18:39:34.343Z,95552.42
2023-04-15T18:42:02.373Z,95553.95
2023-04-15T18:44:30.454Z,95557.16
2023-04-15T18:46:58.383Z,95557.60
2023-04-15T18:49:27.542Z,95559.14
2023-04-15T18:51:55.612Z,95561.65
2023-04-15T18:54:23.658Z,95563.16
2023-04-15T18:56:52.406Z,95562.03
2023-04-15T18:59:29.460Z,95564.66
2023-04-15T19:01:59.928Z,95566.73
2023-04-15T19:04:31.355Z,95568.77
2023-04-15T19:06:59.637Z,95569.22
2023-04-15T19:09:28.847Z,95568.49
2023-04-15T19:11:57.676Z,95565.18
2023-04-15T19:14:25.783Z,95566.08
2023-04-15T19:16:53.752Z,95566.52
2023-04-15T19:19:21.734Z,95570.02
2023-04-15T19:21:50.421Z,95570.14
2023-04-15T19:24:19.667Z,95565.51
2023-04-15T19:26:50.381Z,95567.11
2023-04-15T19:29:19.087Z,95568.97
2023-04-15T19:31:47.075Z,95571.48
2023-04-15T19:34:15.456Z,95574.91
2023-04-15T19:36:43.556Z,95575.29
2023-04-15T19:39:11.700Z,95572.40
2023-04-15T19:41:39.702Z,95575.17
2023-04-15T19:44:07.781Z,95579.88
2023-04-15T19:46:35.875Z,95577.14
2023-04-15T19:49:04.135Z,95579.55
2023-04-15T19:51:32.696Z,95581.02
2023-04-15T19:54:00.770Z,95579.51
2023-04-15T19:56:29.386Z,95577.45
2023-04-15T19:58:57.325Z,95576.70
2023-04-15T20:01:25.403Z,95573.17
2023-04-15T20:03:54.546Z,95573.63
2023-04-15T20:06:22.668Z,95573.20
2023-04-15T20:08:50.894Z,95573.02
2023-04-15T20:11:18.998Z,95579.11
2023-04-15T20:13:47.008Z,95581.98
2023-04-15T20:16:15.180Z,95580.72
2023-04-15T20:18:43.072Z,95585.09
2023-04-15T20:21:11.154Z,95587.80
2023-04-15T20:23:40.863Z,95586.03
2023-04-15T20:26:08.808Z,95586.21
2023-04-15T20:28:36.751Z,95587.01
2023-04-15T20:31:04.631Z,95585.75
2023-04-15T20:33:32.814Z,95587.14
2023-04-15T20:36:01.229Z,95590.04
2023-04-15T20:38:29.163Z,95594.23
2023-04-15T20:40:58.176Z,95595.73
2023-04-15T20:43:26.178Z,95595.89
2023-04-15T20:45:56.622Z,95599.55
2023-04-15T20:48:26.292Z,95604.79
2023-04-15T20:50:54.325Z,95609.83
2023-04-15T20:53:22.508Z,95614.88
2023-04-15T20:55:50.706Z,95614.38
2023-04-15T20:58:18.626Z,95612.33
2023-04-15T21:00:47.230Z,95614.90
2023-04-15T21:03:15.500Z,95619.46
2023-04-15T21:05:43.556Z,95625.33
2023-04-15T21:08:13.996Z,95628.18
2023-04-15T21:10:41.863Z,95630.85
2023-04-15T21:13:09.835Z,95633.23
2023-04-15T21:15:37.764Z,95633.50
2023-04-15T21:18:06.037Z,95634.82
2023-04-15T21:20:33.977Z,95635.11
2023-04-15T21:23:02.009Z,95633.45
2023-04-15T21:25:29.976Z,95634.95
2023-04-15T21:27:58.470Z,95634.92
2023-04-15T21:30:26.602Z,95635.14
2023-04-15T21:32:55.913Z,95640.69
2023-04-15T21:35:23.883Z,95643.06
2023-04-15T21:37:51.883Z,95644.30
2023-04-15T21:40:20.294Z,95642.06
2023-04-15T21:42:49.262Z,95644.70
2023-04-15T21:45:17.425Z,95648.02
2023-04-15T21:48:05.349Z,95646.92
2023-04-15T21:50:33.132Z,95647.11
2023-04-15T21:53:01.158Z,95651.20
2023-04-15T21:55:29.225Z,95649.16
2023-04-15T21:57:57.202Z,95649.41
2023-04-15T22:00:25.202Z,95647.92
2023-04-15T22:02:53.341Z,95647.73
2023-04-15T22:05:21.424Z,95646.64
2023-04-15T22:07:49.487Z,95645.17
2023-04-15T22:10:17.562Z,95643.89
2023-04-15T22:12:45.444Z,95642.20
2023-04-15T22:15:13.711Z,95640.77
2023-04-15T22:17:41.751Z,95643.01
2023-04-15T22:20:10.362Z,95649.32
2023-04-15T22:22:44.165Z,95651.70
2023-04-15T22:25:12.910Z,95649.95
2023-04-15T22:27:40.879Z,95655.37
2023-04-15T22:30:10.571Z,95658.88
2023-04-15T22:32:38.556Z,95662.08
2023-04-15T22:35:06.924Z,95668.04
2023-04-15T22:37:35.277Z,95668.42
2023-04-15T22:40:03.532Z,95669.73
2023-04-15T22:42:31.480Z,95673.77
2023-04-15T22:44:59.357Z,95677.45
2023-04-15T22:47:27.400Z,95679.58
2023-04-15T22:49:55.327Z,95682.69
2023-04-15T22:52:30.175Z,95682.41
2023-04-15T22:54:59.885Z,95682.75
2023-04-15T22:57:28.666Z,95680.35
2023-04-15T22:59:56.708Z,95677.77
2023-04-15T23:02:24.938Z,95677.60
2023-04-15T23:04:53.185Z,95674.83
2023-04-15T23:07:21.349Z,95675.80
2023-04-15T23:09:49.323Z,95674.73
2023-04-15T23:12:17.289Z,95677.92
2023-04-15T23:14:45.280Z,95677.91
2023-04-15T23:17:13.183Z,95679.63
2023-04-15T23:19:41.221Z,95681.20
2023-04-15T23:22:10.734Z,95682.02
2023-04-15T23:24:38.762Z,95677.60
2023-04-15T23:27:06.702Z,95677.90
2023-04-15T23:29:34.611Z,95681.85
2023-04-15T23:32:02.666Z,95681.77
2023-04-15T23:34:30.852Z,95684.91
2023-04-15T23:36:58.758Z,95687.56
2023-04-15T23:39:26.786Z,95686.02
2023-04-15T23:41:54.913Z,95683.47
2023-04-15T23:44:23.377Z,95684.38
2023-04-15T23:46:51.468Z,95683.21
2023-04-15T23:49:20.490Z,95680.36
2023-04-15T23:51:48.800Z,95680.59
2023-04-15T23:54:16.692Z,95679.26
2023-04-15T23:56:44.545Z,95679.77
2023-04-15T23:59:12.570Z,95683.10
